Friendship, Indiana
Current Conditions -  °F | °C
As of 2:52 PM on Saturday 25 Oct 2014 (Local Time) from KCVG Reporting Station
Scattered Clouds Scattered Clouds  
Wind Chill: 72°   Ceiling: Unl
Heat Index: 72°   Visibility: 10mi
Dew Point: 57°   Wind: 13mph
Humidity: 59%   Direction: 270°W
Pressure: 29.93"   Gusts: NA
Location:  38.97°N, 85.15°W
Report Text: KCVG 251852Z 27011KT 10SM FEW025 SCT250 22/14 A2993 RMK AO2 SLP130 T02220139 $
Loading
Personal Weather Stations






























Interactive Weather Map New forecast layout! Learn more

10-Day Weather Forecast

Advertisements
Track Severe Weather on mobile